createdAt,value
2024-05-09T00:00:06.718Z,11.26
2024-05-09T00:00:39.567Z,11.23
2024-05-09T00:01:06.061Z,11.23
2024-05-09T00:01:35.982Z,11.24
2024-05-09T00:02:05.975Z,11.23
2024-05-09T00:02:36.115Z,11.24
2024-05-09T00:03:06.208Z,11.24
2024-05-09T00:03:36.037Z,11.24
2024-05-09T00:04:06.118Z,11.24
2024-05-09T00:04:36.006Z,11.23
2024-05-09T00:05:06.132Z,11.23
2024-05-09T00:05:36.559Z,11.24
2024-05-09T00:06:06.003Z,11.23
2024-05-09T00:06:35.917Z,11.21
2024-05-09T00:07:06.078Z,11.23
2024-05-09T00:07:35.933Z,11.21
2024-05-09T00:08:09.525Z,11.19
2024-05-09T00:08:36.010Z,11.21
2024-05-09T00:09:05.968Z,11.21
2024-05-09T00:09:35.914Z,11.23
2024-05-09T00:10:09.228Z,11.23
2024-05-09T00:10:38.371Z,11.24
2024-05-09T00:11:05.976Z,11.23
2024-05-09T00:11:35.970Z,11.24
2024-05-09T00:12:05.956Z,11.21
2024-05-09T00:12:35.886Z,11.21
2024-05-09T00:13:06.173Z,11.21
2024-05-09T00:13:35.878Z,11.21
2024-05-09T00:14:05.935Z,11.21
2024-05-09T00:14:35.940Z,11.21
2024-05-09T00:15:05.874Z,11.21
2024-05-09T00:15:36.665Z,11.21
2024-05-09T00:16:05.905Z,11.21
2024-05-09T00:16:35.875Z,11.20
2024-05-09T00:17:05.924Z,11.20
2024-05-09T00:17:35.976Z,11.20
2024-05-09T00:18:06.448Z,11.19
2024-05-09T00:18:35.915Z,11.19
2024-05-09T00:19:10.598Z,11.19
2024-05-09T00:19:35.990Z,11.17
2024-05-09T00:20:14.266Z,11.17
2024-05-09T00:20:39.515Z,11.13
2024-05-09T00:21:05.873Z,11.16
2024-05-09T00:21:35.837Z,11.16
2024-05-09T00:22:05.842Z,11.13
2024-05-09T00:22:35.832Z,11.17
2024-05-09T00:23:10.127Z,11.17
2024-05-09T00:23:35.969Z,11.19
2024-05-09T00:24:05.855Z,11.19
2024-05-09T00:24:35.824Z,11.17
2024-05-09T00:25:05.822Z,11.17
2024-05-09T00:25:35.835Z,11.17
2024-05-09T00:26:05.879Z,11.20
2024-05-09T00:26:35.868Z,11.19
2024-05-09T00:27:06.036Z,11.20
2024-05-09T00:27:35.800Z,11.17
2024-05-09T00:28:09.882Z,11.20
2024-05-09T00:28:35.793Z,11.20
2024-05-09T00:29:05.848Z,11.19
2024-05-09T00:29:40.133Z,11.19
2024-05-09T00:30:07.381Z,11.19
2024-05-09T00:30:37.189Z,11.17
2024-05-09T00:31:05.816Z,11.19
2024-05-09T00:31:35.778Z,11.19
2024-05-09T00:32:10.808Z,11.19
2024-05-09T00:32:35.917Z,11.20
2024-05-09T00:33:11.642Z,11.20
2024-05-09T00:33:36.063Z,11.21
2024-05-09T00:34:05.983Z,11.20
2024-05-09T00:34:35.776Z,11.20
2024-05-09T00:35:05.770Z,11.17
2024-05-09T00:35:35.977Z,11.20
2024-05-09T00:36:05.833Z,11.19
2024-05-09T00:36:35.751Z,11.20
2024-05-09T00:37:05.854Z,11.21
2024-05-09T00:37:35.743Z,11.19
2024-05-09T00:38:05.886Z,11.19
2024-05-09T00:38:35.789Z,11.20
2024-05-09T00:39:05.739Z,11.20
2024-05-09T00:39:35.746Z,11.17
2024-05-09T00:40:15.290Z,11.17
2024-05-09T00:40:39.816Z,11.19
2024-05-09T00:41:05.790Z,11.17
2024-05-09T00:41:35.848Z,11.16
2024-05-09T00:42:05.741Z,11.17
2024-05-09T00:42:35.714Z,11.13
2024-05-09T00:43:11.104Z,11.12
2024-05-09T00:43:35.798Z,11.13
2024-05-09T00:44:05.797Z,11.12
2024-05-09T00:44:35.739Z,11.11
2024-05-09T00:45:05.699Z,11.11
2024-05-09T00:45:35.775Z,11.09
2024-05-09T00:46:09.759Z,11.11
2024-05-09T00:46:35.684Z,11.11
2024-05-09T00:47:05.821Z,11.09
2024-05-09T00:47:40.040Z,11.11
2024-05-09T00:48:05.887Z,11.11
2024-05-09T00:48:35.773Z,11.09
2024-05-09T00:49:10.153Z,11.11
2024-05-09T00:49:35.799Z,11.11
2024-05-09T00:50:09.950Z,11.11
2024-05-09T00:50:37.469Z,11.11
2024-05-09T00:51:05.704Z,11.08
2024-05-09T00:51:35.662Z,11.06
2024-05-09T00:52:05.656Z,11.08
2024-05-09T00:52:35.650Z,11.08
2024-05-09T00:53:05.784Z,11.09
2024-05-09T00:53:35.787Z,11.09
2024-05-09T00:54:05.643Z,11.11
2024-05-09T00:54:35.646Z,11.12
2024-05-09T00:55:05.718Z,11.12
2024-05-09T00:55:35.705Z,11.12
2024-05-09T00:56:05.696Z,11.12
2024-05-09T00:56:35.711Z,11.11
2024-05-09T00:57:05.713Z,11.11
2024-05-09T00:57:35.709Z,11.12
2024-05-09T00:58:05.649Z,11.12
2024-05-09T00:58:35.629Z,11.13
2024-05-09T00:59:07.488Z,11.13
2024-05-09T00:59:35.727Z,11.12
2024-05-09T01:00:07.807Z,11.13
2024-05-09T01:00:39.631Z,11.12
2024-05-09T01:01:05.697Z,11.12
2024-05-09T01:01:35.760Z,11.13
2024-05-09T01:02:05.757Z,11.12
2024-05-09T01:02:35.739Z,11.12
2024-05-09T01:03:06.038Z,11.13
2024-05-09T01:03:35.805Z,11.12
2024-05-09T01:04:05.643Z,11.11
2024-05-09T01:04:35.728Z,11.11
2024-05-09T01:05:05.681Z,11.11
2024-05-09T01:05:35.827Z,11.11
2024-05-09T01:06:05.644Z,11.09
2024-05-09T01:06:35.610Z,11.09
2024-05-09T01:07:05.631Z,11.09
2024-05-09T01:07:35.576Z,11.09
2024-05-09T01:08:05.625Z,11.09
2024-05-09T01:08:35.635Z,11.08
2024-05-09T01:09:05.563Z,11.09
2024-05-09T01:09:35.559Z,11.12
2024-05-09T01:10:09.065Z,11.11
2024-05-09T01:10:36.496Z,11.13
2024-05-09T01:11:05.649Z,11.12
2024-05-09T01:11:40.554Z,11.13
2024-05-09T01:12:05.772Z,11.11
2024-05-09T01:12:35.681Z,11.11
2024-05-09T01:13:05.975Z,11.09
2024-05-09T01:13:35.531Z,11.11
2024-05-09T01:14:05.596Z,11.11
2024-05-09T01:14:35.655Z,11.11
2024-05-09T01:15:05.575Z,11.12
2024-05-09T01:15:35.957Z,11.11
2024-05-09T01:16:05.616Z,11.12
2024-05-09T01:16:35.521Z,11.11
2024-05-09T01:17:05.552Z,11.13
2024-05-09T01:17:35.684Z,11.13
2024-05-09T01:18:10.613Z,11.13
2024-05-09T01:18:35.745Z,11.13
2024-05-09T01:19:05.607Z,11.13
2024-05-09T01:19:35.693Z,11.13
2024-05-09T01:20:10.996Z,11.12
2024-05-09T01:20:41.601Z,11.12
2024-05-09T01:21:10.401Z,11.12
2024-05-09T01:21:35.604Z,11.09
2024-05-09T01:22:05.511Z,11.11
2024-05-09T01:22:35.480Z,11.13
2024-05-09T01:23:05.531Z,11.12
2024-05-09T01:23:35.499Z,11.11
2024-05-09T01:24:05.475Z,11.09
2024-05-09T01:24:35.473Z,11.12
2024-05-09T01:25:09.186Z,11.08
2024-05-09T01:25:35.597Z,11.09
2024-05-09T01:26:05.543Z,11.09
2024-05-09T01:26:35.535Z,11.09
2024-05-09T01:27:09.739Z,11.11
2024-05-09T01:27:35.526Z,11.11
2024-05-09T01:28:05.523Z,11.11
2024-05-09T01:28:35.450Z,11.09
2024-05-09T01:29:05.526Z,11.09
2024-05-09T01:29:35.521Z,11.08
2024-05-09T01:30:14.915Z,11.06
2024-05-09T01:30:37.415Z,11.06
2024-05-09T01:31:05.475Z,11.06
2024-05-09T01:31:39.874Z,11.08
2024-05-09T01:32:05.774Z,11.09
2024-05-09T01:32:35.610Z,11.08
2024-05-09T01:33:11.767Z,11.12
2024-05-09T01:33:35.958Z,11.11
2024-05-09T01:34:05.585Z,11.09
2024-05-09T01:34:35.507Z,11.09
2024-05-09T01:35:05.537Z,11.08
2024-05-09T01:35:39.979Z,11.08
2024-05-09T01:36:05.760Z,11.08
2024-05-09T01:36:35.497Z,11.09
2024-05-09T01:37:09.996Z,11.08
2024-05-09T01:37:35.754Z,11.08
2024-05-09T01:38:05.763Z,11.08
2024-05-09T01:38:35.660Z,11.09
2024-05-09T01:39:09.608Z,11.08
2024-05-09T01:39:35.503Z,11.08
2024-05-09T01:40:38.775Z,11.08
2024-05-09T01:41:05.598Z,11.08
2024-05-09T01:41:35.570Z,11.08
2024-05-09T01:42:05.468Z,11.11
2024-05-09T01:42:35.490Z,11.09
2024-05-09T01:43:10.951Z,11.08
2024-05-09T01:43:35.735Z,11.09
2024-05-09T01:44:05.491Z,11.11
2024-05-09T01:44:35.550Z,11.11
2024-05-09T01:45:05.460Z,11.09
2024-05-09T01:45:35.460Z,11.11
2024-05-09T01:46:05.455Z,11.08
2024-05-09T01:46:35.446Z,11.05
2024-05-09T01:47:05.539Z,11.06
2024-05-09T01:47:35.663Z,11.06
2024-05-09T01:48:05.605Z,11.08
2024-05-09T01:48:35.523Z,11.08
2024-05-09T01:49:05.502Z,11.08
2024-05-09T01:49:35.465Z,11.08
2024-05-09T01:50:11.008Z,11.05
2024-05-09T01:50:39.673Z,11.05
2024-05-09T01:51:05.403Z,11.03
2024-05-09T01:51:35.344Z,11.05
2024-05-09T01:52:09.880Z,11.05
2024-05-09T01:52:35.314Z,11.03
2024-05-09T01:53:10.271Z,11.03
2024-05-09T01:53:35.449Z,11.03
2024-05-09T01:54:05.303Z,11.03
2024-05-09T01:54:35.310Z,11.01
2024-05-09T01:55:06.628Z,11.02
2024-05-09T01:55:39.741Z,11.01
2024-05-09T01:56:05.467Z,11.01
2024-05-09T01:56:35.310Z,11.01
2024-05-09T01:57:05.319Z,11.02
2024-05-09T01:57:35.288Z,11.02
2024-05-09T01:58:09.996Z,11.01
2024-05-09T01:58:35.286Z,11.03
2024-05-09T01:59:05.328Z,11.03
2024-05-09T01:59:35.315Z,11.03
2024-05-09T02:00:07.635Z,11.03
2024-05-09T02:00:40.044Z,11.03
2024-05-09T02:01:05.353Z,11.02
2024-05-09T02:01:55.954Z,11.01
2024-05-09T02:02:05.414Z,11.01
2024-05-09T02:02:35.345Z,10.99
2024-05-09T02:03:05.459Z,11.01
2024-05-09T02:03:35.403Z,10.99
2024-05-09T02:04:05.503Z,10.99
2024-05-09T02:04:35.433Z,11.01
2024-05-09T02:05:05.482Z,10.99
2024-05-09T02:05:35.409Z,10.99
2024-05-09T02:06:05.487Z,10.99
2024-05-09T02:06:35.254Z,11.01
2024-05-09T02:07:05.363Z,11.01
2024-05-09T02:07:35.232Z,11.01
2024-05-09T02:08:05.261Z,11.01
2024-05-09T02:08:35.250Z,11.01
2024-05-09T02:09:05.239Z,11.01
2024-05-09T02:09:35.377Z,11.01
2024-05-09T02:10:10.763Z,10.99
2024-05-09T02:10:35.224Z,10.99
2024-05-09T02:11:09.472Z,10.99
2024-05-09T02:11:35.309Z,11.01
2024-05-09T02:12:05.394Z,11.01
2024-05-09T02:12:35.229Z,11.01
2024-05-09T02:13:05.212Z,10.99
2024-05-09T02:13:39.753Z,10.99
2024-05-09T02:14:05.266Z,10.99
2024-05-09T02:14:35.292Z,11.01
2024-05-09T02:15:05.293Z,11.02
2024-05-09T02:15:35.212Z,11.03
2024-05-09T02:16:05.185Z,11.01
2024-05-09T02:16:35.192Z,10.99
2024-05-09T02:17:05.204Z,10.98
2024-05-09T02:17:35.352Z,11.01
2024-05-09T02:18:05.365Z,11.01
2024-05-09T02:18:35.240Z,11.01
2024-05-09T02:19:05.309Z,11.01
2024-05-09T02:19:39.467Z,11.01
2024-05-09T02:20:06.235Z,11.01
2024-05-09T02:20:36.766Z,10.99
2024-05-09T02:21:05.400Z,10.98
2024-05-09T02:21:35.164Z,10.98
2024-05-09T02:22:05.183Z,10.98
2024-05-09T02:22:35.143Z,10.94
2024-05-09T02:23:05.574Z,10.95
2024-05-09T02:23:35.296Z,10.94
2024-05-09T02:24:05.148Z,10.95
2024-05-09T02:24:35.146Z,10.94
2024-05-09T02:25:05.157Z,10.95
2024-05-09T02:25:35.157Z,10.94
2024-05-09T02:26:05.195Z,10.95
2024-05-09T02:26:35.175Z,10.95
2024-05-09T02:27:05.145Z,10.95
2024-05-09T02:27:39.500Z,10.93
2024-05-09T02:28:05.173Z,10.94
2024-05-09T02:28:35.135Z,10.93
2024-05-09T02:29:05.126Z,10.94
2024-05-09T02:29:35.149Z,10.93
2024-05-09T02:30:12.221Z,10.93
2024-05-09T02:30:39.774Z,10.94
2024-05-09T02:31:09.935Z,10.93
2024-05-09T02:31:35.170Z,10.93
2024-05-09T02:32:05.156Z,10.91
2024-05-09T02:32:35.185Z,10.93
2024-05-09T02:33:05.285Z,10.93
2024-05-09T02:33:35.262Z,10.94
2024-05-09T02:34:05.317Z,10.94
2024-05-09T02:34:35.138Z,10.93
2024-05-09T02:35:05.182Z,10.93
2024-05-09T02:35:35.220Z,10.91
2024-05-09T02:36:05.078Z,10.91
2024-05-09T02:36:35.066Z,10.93
2024-05-09T02:37:05.060Z,10.90
2024-05-09T02:37:35.063Z,10.90
2024-05-09T02:38:05.202Z,10.91
2024-05-09T02:38:35.126Z,10.88
2024-05-09T02:39:05.053Z,10.88
2024-05-09T02:39:35.051Z,10.88
2024-05-09T02:40:05.753Z,10.87
2024-05-09T02:40:38.019Z,10.87
2024-05-09T02:41:05.057Z,10.88
2024-05-09T02:41:35.098Z,10.87
2024-05-09T02:42:05.035Z,10.87
2024-05-09T02:42:35.049Z,10.88
2024-05-09T02:43:05.182Z,10.88
2024-05-09T02:43:35.029Z,10.88
2024-05-09T02:44:05.098Z,10.88
2024-05-09T02:44:35.049Z,10.88
2024-05-09T02:45:05.012Z,10.88
2024-05-09T02:45:35.019Z,10.88
2024-05-09T02:46:05.095Z,10.87
2024-05-09T02:46:35.011Z,10.88
2024-05-09T02:47:05.049Z,10.87
2024-05-09T02:47:39.972Z,10.88
2024-05-09T02:48:05.350Z,10.87
2024-05-09T02:48:35.079Z,10.86
2024-05-09T02:49:05.124Z,10.84
2024-05-09T02:49:35.100Z,10.84
2024-05-09T02:50:06.209Z,10.84
2024-05-09T02:50:39.013Z,10.83
2024-05-09T02:51:05.092Z,10.81
2024-05-09T02:51:40.242Z,10.81
2024-05-09T02:52:05.041Z,10.83
2024-05-09T02:52:34.994Z,10.86
2024-05-09T02:53:05.129Z,10.84
2024-05-09T02:53:35.087Z,10.86
2024-05-09T02:54:04.960Z,10.86
2024-05-09T02:54:34.981Z,10.87
2024-05-09T02:55:04.969Z,10.87
2024-05-09T02:55:34.993Z,10.87
2024-05-09T02:56:09.539Z,10.87
2024-05-09T02:56:34.984Z,10.88
2024-05-09T02:57:04.955Z,10.90
2024-05-09T02:57:39.873Z,10.90
2024-05-09T02:58:05.037Z,10.90
2024-05-09T02:58:34.950Z,10.93
2024-05-09T02:59:09.305Z,10.91
2024-05-09T02:59:34.965Z,10.91
2024-05-09T03:00:07.653Z,10.91
2024-05-09T03:00:39.491Z,10.88
2024-05-09T03:01:04.948Z,10.90
2024-05-09T03:01:35.174Z,10.90
2024-05-09T03:02:04.975Z,10.90
2024-05-09T03:02:34.980Z,10.91
2024-05-09T03:03:10.616Z,10.93
2024-05-09T03:03:35.159Z,10.95
2024-05-09T03:04:04.947Z,10.95
2024-05-09T03:04:35.046Z,10.98
2024-05-09T03:05:05.017Z,10.98
2024-05-09T03:05:35.204Z,10.99
2024-05-09T03:06:04.979Z,10.99
2024-05-09T03:06:34.901Z,10.95
2024-05-09T03:07:09.957Z,10.98
2024-05-09T03:07:34.941Z,10.98
2024-05-09T03:08:05.111Z,10.95
2024-05-09T03:08:35.084Z,10.94
2024-05-09T03:09:04.915Z,10.93
2024-05-09T03:09:34.881Z,10.93
2024-05-09T03:10:14.974Z,10.94
2024-05-09T03:10:37.040Z,10.93
2024-05-09T03:11:09.771Z,10.95
2024-05-09T03:11:35.119Z,10.94
2024-05-09T03:12:04.950Z,10.93
2024-05-09T03:12:36.558Z,10.91
2024-05-09T03:13:04.852Z,10.88
2024-05-09T03:13:34.866Z,10.90
2024-05-09T03:14:05.013Z,10.93
2024-05-09T03:14:34.900Z,10.93
2024-05-09T03:15:08.151Z,10.93
2024-05-09T03:15:34.914Z,10.90
2024-05-09T03:16:04.840Z,10.91
2024-05-09T03:16:34.836Z,10.90
2024-05-09T03:17:04.969Z,10.90
2024-05-09T03:17:35.111Z,10.90
2024-05-09T03:18:05.043Z,10.91
2024-05-09T03:18:34.872Z,10.90
2024-05-09T03:19:05.072Z,10.93
2024-05-09T03:19:34.856Z,10.93
2024-05-09T03:20:06.879Z,10.93
2024-05-09T03:20:36.305Z,10.93
2024-05-09T03:21:04.959Z,10.91
2024-05-09T03:21:34.940Z,10.90
2024-05-09T03:22:04.811Z,10.90
2024-05-09T03:22:34.771Z,10.90
2024-05-09T03:23:05.461Z,10.88
2024-05-09T03:23:34.777Z,10.90
2024-05-09T03:24:04.752Z,10.88
2024-05-09T03:24:34.760Z,10.87
2024-05-09T03:25:04.849Z,10.87
2024-05-09T03:25:34.794Z,10.84
2024-05-09T03:26:04.835Z,10.86
2024-05-09T03:26:34.851Z,10.86
2024-05-09T03:27:04.783Z,10.86
2024-05-09T03:27:34.733Z,10.84
2024-05-09T03:28:04.748Z,10.84
2024-05-09T03:28:34.772Z,10.84
2024-05-09T03:29:04.847Z,10.83
2024-05-09T03:29:34.824Z,10.83
2024-05-09T03:30:07.327Z,10.83
2024-05-09T03:30:39.797Z,10.83
2024-05-09T03:31:04.818Z,10.81
2024-05-09T03:31:34.767Z,10.83
2024-05-09T03:32:04.814Z,10.83
2024-05-09T03:32:34.826Z,10.84
2024-05-09T03:33:04.879Z,10.84
2024-05-09T03:33:39.671Z,10.86
2024-05-09T03:34:04.963Z,10.86
2024-05-09T03:34:34.698Z,10.87
2024-05-09T03:35:09.199Z,10.88
2024-05-09T03:35:34.767Z,10.88
2024-05-09T03:36:06.873Z,10.88
2024-05-09T03:36:34.671Z,10.90
2024-05-09T03:37:04.694Z,10.88
2024-05-09T03:37:34.667Z,10.88
2024-05-09T03:38:04.889Z,10.87
2024-05-09T03:38:34.771Z,10.88
2024-05-09T03:39:04.659Z,10.86
2024-05-09T03:39:34.670Z,10.88
2024-05-09T03:40:07.370Z,10.87
2024-05-09T03:40:34.681Z,10.86
2024-05-09T03:41:04.675Z,10.86
2024-05-09T03:41:34.870Z,10.87
2024-05-09T03:42:04.660Z,10.87
2024-05-09T03:42:34.651Z,10.87
2024-05-09T03:43:04.641Z,10.87
2024-05-09T03:43:38.883Z,10.84
2024-05-09T03:44:04.729Z,10.86
2024-05-09T03:44:34.707Z,10.87
2024-05-09T03:45:04.627Z,10.86
2024-05-09T03:45:34.625Z,10.86
2024-05-09T03:46:04.706Z,10.84
2024-05-09T03:46:34.622Z,10.84
2024-05-09T03:47:09.526Z,10.87
2024-05-09T03:47:34.858Z,10.84
2024-05-09T03:48:04.745Z,10.83
2024-05-09T03:48:34.692Z,10.81
2024-05-09T03:49:04.738Z,10.84
2024-05-09T03:49:34.730Z,10.87
2024-05-09T03:50:15.183Z,10.86
2024-05-09T03:50:36.207Z,10.88
2024-05-09T03:51:09.807Z,10.87
2024-05-09T03:51:34.631Z,10.86
2024-05-09T03:52:04.600Z,10.86
2024-05-09T03:52:34.590Z,10.86
2024-05-09T03:53:04.686Z,10.87
2024-05-09T03:53:39.564Z,10.88
2024-05-09T03:54:04.634Z,10.87
2024-05-09T03:54:34.570Z,10.84
2024-05-09T03:55:04.587Z,10.84
2024-05-09T03:55:34.580Z,10.83
2024-05-09T03:56:04.608Z,10.84
2024-05-09T03:56:34.680Z,10.84
2024-05-09T03:57:08.902Z,10.83
2024-05-09T03:57:35.143Z,10.84
2024-05-09T03:58:04.555Z,10.83
2024-05-09T03:58:34.552Z,10.84
2024-05-09T03:59:06.723Z,10.86
2024-05-09T03:59:34.612Z,10.86
2024-05-09T04:00:07.380Z,10.83
2024-05-09T04:00:38.462Z,10.83
2024-05-09T04:01:04.642Z,10.83
2024-05-09T04:01:39.663Z,10.81
2024-05-09T04:02:04.694Z,10.80
2024-05-09T04:02:34.674Z,10.81
2024-05-09T04:03:05.328Z,10.83
2024-05-09T04:03:34.749Z,10.81
2024-05-09T04:04:04.584Z,10.83
2024-05-09T04:04:34.604Z,10.80
2024-05-09T04:05:09.346Z,10.78
2024-05-09T04:05:34.947Z,10.76
2024-05-09T04:06:04.533Z,10.76
2024-05-09T04:06:34.528Z,10.76
2024-05-09T04:07:04.508Z,10.75
2024-05-09T04:07:34.519Z,10.76
2024-05-09T04:08:09.282Z,10.73
2024-05-09T04:08:34.725Z,10.75
2024-05-09T04:09:04.509Z,10.75
2024-05-09T04:09:39.356Z,10.75
2024-05-09T04:10:05.429Z,10.73
2024-05-09T04:10:35.377Z,10.75
2024-05-09T04:11:04.627Z,10.75
2024-05-09T04:11:34.632Z,10.76
2024-05-09T04:12:09.440Z,10.78
2024-05-09T04:12:34.535Z,10.78
2024-05-09T04:13:04.658Z,10.80
2024-05-09T04:13:34.471Z,10.78
2024-05-09T04:14:04.582Z,10.78
2024-05-09T04:14:34.552Z,10.78
2024-05-09T04:15:11.220Z,10.78
2024-05-09T04:15:34.546Z,10.78
2024-05-09T04:16:04.459Z,10.78
2024-05-09T04:16:34.465Z,10.80
2024-05-09T04:17:04.465Z,10.80
2024-05-09T04:17:34.817Z,10.81
2024-05-09T04:18:04.615Z,10.80
2024-05-09T04:18:34.494Z,10.81
2024-05-09T04:19:04.455Z,10.81
2024-05-09T04:19:34.531Z,10.80
2024-05-09T04:20:12.407Z,10.80
2024-05-09T04:20:38.996Z,10.81
2024-05-09T04:21:04.584Z,10.80
2024-05-09T04:21:34.425Z,10.81
2024-05-09T04:22:04.423Z,10.81
2024-05-09T04:22:34.427Z,10.80
2024-05-09T04:23:04.502Z,10.80
2024-05-09T04:23:39.338Z,10.81
2024-05-09T04:24:04.475Z,10.81
2024-05-09T04:24:34.405Z,10.81
2024-05-09T04:25:04.419Z,10.83
2024-05-09T04:25:39.002Z,10.84
2024-05-09T04:26:04.544Z,10.84
2024-05-09T04:26:34.496Z,10.83
2024-05-09T04:27:04.395Z,10.84
2024-05-09T04:27:39.345Z,10.87
2024-05-09T04:28:04.452Z,10.84
2024-05-09T04:28:34.388Z,10.83
2024-05-09T04:29:04.490Z,10.81
2024-05-09T04:29:34.425Z,10.81
2024-05-09T04:30:06.105Z,10.81
2024-05-09T04:30:38.860Z,10.81
2024-05-09T04:31:04.369Z,10.81
2024-05-09T04:31:38.600Z,10.81
2024-05-09T04:32:04.457Z,10.80
2024-05-09T04:32:34.530Z,10.83
2024-05-09T04:33:04.544Z,10.83
2024-05-09T04:33:34.661Z,10.84
2024-05-09T04:34:04.670Z,10.84
2024-05-09T04:34:34.536Z,10.86
2024-05-09T04:35:04.459Z,10.87
2024-05-09T04:35:34.483Z,10.86
2024-05-09T04:36:08.669Z,10.86
2024-05-09T04:36:34.425Z,10.86
2024-05-09T04:37:04.349Z,10.88
2024-05-09T04:37:34.342Z,10.87
2024-05-09T04:38:04.440Z,10.88
2024-05-09T04:38:34.531Z,10.88
2024-05-09T04:39:04.406Z,10.88
2024-05-09T04:39:34.331Z,10.88
2024-05-09T04:40:07.009Z,10.90
2024-05-09T04:40:36.578Z,10.91
2024-05-09T04:41:04.397Z,10.90
2024-05-09T04:41:34.527Z,10.91
2024-05-09T04:42:04.313Z,10.93
2024-05-09T04:42:34.323Z,10.93
2024-05-09T04:43:04.375Z,10.93
2024-05-09T04:43:34.307Z,10.91
2024-05-09T04:44:04.370Z,10.91
2024-05-09T04:44:34.342Z,10.88
2024-05-09T04:45:04.298Z,10.88
2024-05-09T04:45:34.378Z,10.88
2024-05-09T04:46:04.391Z,10.91
2024-05-09T04:46:34.303Z,10.91
2024-05-09T04:47:04.329Z,10.91
2024-05-09T04:47:34.467Z,10.90
2024-05-09T04:48:09.415Z,10.93
2024-05-09T04:48:34.431Z,10.93
2024-05-09T04:49:04.439Z,10.93
2024-05-09T04:49:34.359Z,10.94
2024-05-09T04:50:11.376Z,10.91
2024-05-09T04:50:38.158Z,10.93
2024-05-09T04:51:04.458Z,10.91
2024-05-09T04:51:34.263Z,10.91
2024-05-09T04:52:04.281Z,10.91
2024-05-09T04:52:34.263Z,10.91
2024-05-09T04:53:04.655Z,10.91
2024-05-09T04:53:34.354Z,10.91
2024-05-09T04:54:04.521Z,10.90
2024-05-09T04:54:36.541Z,10.91
2024-05-09T04:55:04.243Z,10.91
2024-05-09T04:55:39.163Z,10.90
2024-05-09T04:56:04.328Z,10.91
2024-05-09T04:56:34.350Z,10.90
2024-05-09T04:57:04.251Z,10.88
2024-05-09T04:57:34.314Z,10.88
2024-05-09T04:58:04.249Z,10.87
2024-05-09T04:58:34.234Z,10.90
2024-05-09T04:59:08.339Z,10.90
2024-05-09T04:59:34.286Z,10.88
2024-05-09T05:00:09.315Z,10.90
2024-05-09T05:00:36.950Z,10.90
2024-05-09T05:01:04.249Z,10.91
2024-05-09T05:01:34.298Z,10.90
2024-05-09T05:02:04.332Z,10.91
2024-05-09T05:02:34.374Z,10.93
2024-05-09T05:03:04.431Z,10.91
2024-05-09T05:03:34.365Z,10.91
2024-05-09T05:04:04.339Z,10.90
2024-05-09T05:04:34.210Z,10.93
2024-05-09T05:05:08.896Z,10.91
2024-05-09T05:05:34.392Z,10.90
2024-05-09T05:06:04.377Z,10.90
2024-05-09T05:06:34.176Z,10.91
2024-05-09T05:07:04.267Z,10.91
2024-05-09T05:07:34.182Z,10.91
2024-05-09T05:08:04.330Z,10.91
2024-05-09T05:08:34.325Z,10.90
2024-05-09T05:09:09.240Z,10.91
2024-05-09T05:09:34.510Z,10.93
2024-05-09T05:10:05.795Z,10.93
2024-05-09T05:10:36.494Z,10.94
2024-05-09T05:11:04.322Z,10.93
2024-05-09T05:11:35.274Z,10.94
2024-05-09T05:12:04.264Z,10.95
2024-05-09T05:12:34.241Z,10.95
2024-05-09T05:13:04.150Z,10.94
2024-05-09T05:13:41.335Z,10.94
2024-05-09T05:14:04.235Z,10.98
2024-05-09T05:14:34.182Z,10.95
2024-05-09T05:15:08.365Z,10.98
2024-05-09T05:15:34.182Z,10.95
2024-05-09T05:16:04.123Z,10.98
2024-05-09T05:16:34.119Z,10.95
2024-05-09T05:17:04.184Z,10.98
2024-05-09T05:17:38.712Z,10.98
2024-05-09T05:18:04.393Z,10.99
2024-05-09T05:18:34.204Z,10.99
2024-05-09T05:19:05.309Z,10.99
2024-05-09T05:19:34.282Z,11.01
2024-05-09T05:20:04.910Z,11.01
2024-05-09T05:20:34.504Z,11.03
2024-05-09T05:21:04.120Z,11.05
2024-05-09T05:21:39.006Z,11.06
2024-05-09T05:22:04.148Z,11.06
2024-05-09T05:22:34.135Z,11.08
2024-05-09T05:23:04.139Z,11.09
2024-05-09T05:23:34.229Z,11.08
2024-05-09T05:24:04.082Z,11.05
2024-05-09T05:24:34.076Z,11.06
2024-05-09T05:25:04.070Z,11.08
2024-05-09T05:25:34.103Z,11.09
2024-05-09T05:26:04.136Z,11.11
2024-05-09T05:26:34.308Z,11.11
2024-05-09T05:27:04.058Z,11.12
2024-05-09T05:27:34.057Z,11.12
2024-05-09T05:28:09.117Z,11.11
2024-05-09T05:28:34.052Z,11.13
2024-05-09T05:29:04.089Z,11.12
2024-05-09T05:29:38.586Z,11.13
2024-05-09T05:30:05.886Z,11.13
2024-05-09T05:30:35.028Z,11.13
2024-05-09T05:31:04.044Z,11.16
2024-05-09T05:31:34.082Z,11.17
2024-05-09T05:32:04.149Z,11.17
2024-05-09T05:32:34.220Z,11.19
2024-05-09T05:33:04.168Z,11.17
2024-05-09T05:33:34.120Z,11.20
2024-05-09T05:34:04.042Z,11.20
2024-05-09T05:34:34.014Z,11.20
2024-05-09T05:35:04.056Z,11.20
2024-05-09T05:35:34.319Z,11.19
2024-05-09T05:36:08.456Z,11.19
2024-05-09T05:36:34.016Z,11.20
2024-05-09T05:37:04.005Z,11.20
2024-05-09T05:37:33.994Z,11.19
2024-05-09T05:38:08.480Z,11.19
2024-05-09T05:38:34.068Z,11.20
2024-05-09T05:39:03.985Z,11.20
2024-05-09T05:39:33.987Z,11.20
2024-05-09T05:40:04.398Z,11.21
2024-05-09T05:40:37.152Z,11.21
2024-05-09T05:41:04.022Z,11.21
2024-05-09T05:41:34.027Z,11.24
2024-05-09T05:42:03.963Z,11.24
2024-05-09T05:42:33.966Z,11.24
2024-05-09T05:43:08.167Z,11.24
2024-05-09T05:43:34.019Z,11.26
2024-05-09T05:44:04.062Z,11.27
2024-05-09T05:44:34.087Z,11.26
2024-05-09T05:45:05.150Z,11.26
2024-05-09T05:45:33.986Z,11.30
2024-05-09T05:46:03.955Z,11.28
2024-05-09T05:46:33.944Z,11.28
2024-05-09T05:47:03.958Z,11.30
2024-05-09T05:47:38.967Z,11.31
2024-05-09T05:48:04.125Z,11.33
2024-05-09T05:48:34.052Z,11.33
2024-05-09T05:49:04.020Z,11.33
2024-05-09T05:49:34.015Z,11.33
2024-05-09T05:50:17.858Z,11.33
2024-05-09T05:50:36.586Z,11.35
2024-05-09T05:51:04.795Z,11.36
2024-05-09T05:51:33.924Z,11.36
2024-05-09T05:52:03.938Z,11.38
2024-05-09T05:52:33.918Z,11.35
2024-05-09T05:53:04.008Z,11.38
2024-05-09T05:53:38.960Z,11.35
2024-05-09T05:54:04.007Z,11.36
2024-05-09T05:54:33.919Z,11.36
2024-05-09T05:55:03.913Z,11.36
2024-05-09T05:55:33.991Z,11.38
2024-05-09T05:56:03.990Z,11.38
2024-05-09T05:56:34.035Z,11.38
2024-05-09T05:57:07.978Z,11.41
2024-05-09T05:57:33.944Z,11.39
2024-05-09T05:58:03.944Z,11.42
2024-05-09T05:58:33.915Z,11.44
2024-05-09T05:59:04.175Z,11.42
2024-05-09T05:59:38.133Z,11.42
2024-05-09T06:00:07.078Z,11.42
2024-05-09T06:00:38.575Z,11.44
2024-05-09T06:01:04.090Z,11.44
2024-05-09T06:01:33.940Z,11.45
2024-05-09T06:02:04.008Z,11.46
2024-05-09T06:02:33.923Z,11.45
2024-05-09T06:03:04.038Z,11.46
2024-05-09T06:03:37.360Z,11.45
2024-05-09T06:04:04.046Z,11.46
2024-05-09T06:04:33.995Z,11.48
2024-05-09T06:05:04.033Z,11.48
2024-05-09T06:05:38.796Z,11.48
2024-05-09T06:06:04.162Z,11.48
2024-05-09T06:06:33.844Z,11.49
2024-05-09T06:07:03.848Z,11.46
2024-05-09T06:07:33.836Z,11.49
2024-05-09T06:08:04.129Z,11.49
2024-05-09T06:08:33.967Z,11.51
2024-05-09T06:09:03.848Z,11.53
2024-05-09T06:09:33.915Z,11.53
2024-05-09T06:10:05.343Z,11.51
2024-05-09T06:10:38.893Z,11.51
2024-05-09T06:11:04.002Z,11.53
2024-05-09T06:11:33.991Z,11.54
2024-05-09T06:12:04.051Z,11.54
2024-05-09T06:12:33.814Z,11.56
2024-05-09T06:13:03.885Z,11.57
2024-05-09T06:13:33.835Z,11.59
2024-05-09T06:14:03.828Z,11.60
2024-05-09T06:14:33.861Z,11.60
2024-05-09T06:15:07.902Z,11.60
2024-05-09T06:15:33.917Z,11.60
2024-05-09T06:16:03.820Z,11.59
2024-05-09T06:16:33.791Z,11.59
2024-05-09T06:17:08.425Z,11.60
2024-05-09T06:17:34.028Z,11.62
2024-05-09T06:18:03.995Z,11.64
2024-05-09T06:18:34.115Z,11.63
2024-05-09T06:19:03.899Z,11.63
2024-05-09T06:19:33.982Z,11.64
2024-05-09T06:20:04.653Z,11.64
2024-05-09T06:20:36.748Z,11.66
2024-05-09T06:21:03.870Z,11.64
2024-05-09T06:21:33.757Z,11.66
2024-05-09T06:22:03.870Z,11.66
2024-05-09T06:22:33.763Z,11.67
2024-05-09T06:23:03.774Z,11.66
2024-05-09T06:23:33.986Z,11.66
2024-05-09T06:24:06.612Z,11.67
2024-05-09T06:24:33.797Z,11.66
2024-05-09T06:25:03.742Z,11.66
2024-05-09T06:25:33.817Z,11.66
2024-05-09T06:26:03.814Z,11.66
2024-05-09T06:26:33.837Z,11.66